Impacts TAF Board
For situational awareness. Not to be used for flight planning purposes.
IDs:

KORD - Chicago/O'Hare Intl, IL, US

Issued at 1720 UTC 08 Feb 2023
Updated at 1931 UTC 08 Feb 2023
Potential Impact None Slight Moderate High
Time1851Z 08/20Z 08/21Z 08/22Z 08/23Z 09/00Z 09/01Z 09/02Z 09/03Z 09/04Z 09/05Z 09/06Z 09/07Z 09/08Z>>
Type OBS PRVL PRVL PRVL PRVL PRVL PRVL PRVL PRVL PRVL PRVL PRVL PRVL PRVL
VIS 10 >6 >6 >6 >6 >6 >6 >6 >6 6 6 6 4 4
CIG 250 200 200 200 200 200 200 200 200 40 40 40 15 15
Cover OVC BKN BKN BKN BKN BKN BKN BKN BKN OVC OVC OVC OVC OVC
FltCat VFR VFR VFR VFR VFR VFR VFR VFR VFR VFR VFR VFR MVFR MVFR
WX -- -- -- -- -- -- -- -- -- -RA -RA -RA -RA BR -RA BR
WDir 130 150 150 150 150 150 150 150 150 100 100 100 90 90
WSpd 3 6 6 6 6 6 6 6 6 8 8 8 11 11
WGst -- -- -- -- -- -- -- -- -- -- -- -- -- --
WSHgt -- -- -- -- -- -- -- -- -- -- -- -- -- --
WSDir -- -- -- -- -- -- -- -- -- -- -- -- -- --
WSSpd -- -- -- -- -- -- -- -- -- -- -- -- -- --
R04L/22
XWnd -3 -6 -6 -6 -6 -6 -6 -6 -6 -7 -7 -7 -9 -9
HWnd -0 -2 -2 -2 -2 -2 -2 -2 -2 4 4 4 7 7
R04R/22
XWnd -3 -6 -6 -6 -6 -6 -6 -6 -6 -7 -7 -7 -8 -8
HWnd 0 -2 -2 -2 -2 -2 -2 -2 -2 4 4 4 7 7
R09/27
XWnd -2 -5 -5 -5 -5 -5 -5 -5 -5 -1 -1 -1 0 0
HWnd 2 3 3 3 3 3 3 3 3 8 8 8 11 11
R10/28
XWnd -2 -5 -5 -5 -5 -5 -5 -5 -5 -1 -1 -1 0 0
HWnd 2 3 3 3 3 3 3 3 3 8 8 8 11 11

NOTE: LAMP data beyond the time of the TAF data is denoted as LAMP in Type and colored magenta.

Raw TAF
KORD 081720Z 0818/0924 15006KT P6SM BKN200
  FM090400 10008KT 6SM -RA OVC040
  FM090700 09011KT 4SM -RA BR SCT009 OVC015
  FM090900 07014G23KT 2SM RA BR OVC005
  PROB30 0912/0915 -TSRA OVC005CB
  FM091600 21012G22KT 3SM -RA BR BKN005 OVC008
  FM092200 31014G24KT 3SM -RA BR BKN005 OVC008


Raw METAR
KORD 081851Z 13003KT 10SM FEW210 OVC250 06/M03 A3020 RMK AO2 SLP233 T00611028
KORD 081751Z 21003KT 10SM BKN250 04/M03 A3022 RMK AO2 SLP241 T00441028 10044 21028 58019
KORD 081651Z 15005KT 10SM OVC240 03/M03 A3025 RMK AO2 SLP251 T00331028

METAR Board
Radar Display
Forecast Discussion

For situational awareness. Not to be used for flight planning purposes.